createdAt,value
2023-03-20T00:00:21.681Z,101167.12
2023-03-20T00:03:28.359Z,101165.70
2023-03-20T00:06:40.259Z,101161.17
2023-03-20T00:09:47.326Z,101166.47
2023-03-20T00:12:54.073Z,101166.25
2023-03-20T00:16:00.662Z,101166.66
2023-03-20T00:19:06.633Z,101172.42
2023-03-20T00:22:13.794Z,101167.90
2023-03-20T00:25:24.887Z,101163.19
2023-03-20T00:29:00.122Z,101161.55
2023-03-20T00:32:08.255Z,101162.74
2023-03-20T00:35:14.173Z,101158.03
2023-03-20T00:38:20.344Z,101154.56
2023-03-20T00:41:44.792Z,101149.99
2023-03-20T00:44:53.377Z,101153.86
2023-03-20T00:48:00.614Z,101153.09
2023-03-20T00:51:05.444Z,101156.56
2023-03-20T00:54:12.743Z,101164.34
2023-03-20T00:57:29.276Z,101171.66
2023-03-20T01:00:55.219Z,101166.22
2023-03-20T01:04:02.087Z,101167.50
2023-03-20T01:07:08.114Z,101167.28
2023-03-20T01:10:15.180Z,101173.13
2023-03-20T01:13:39.888Z,101183.20
2023-03-20T01:16:46.439Z,101172.05
2023-03-20T01:19:52.222Z,101172.49
2023-03-20T01:22:59.254Z,101176.58
2023-03-20T01:26:05.405Z,101178.95
2023-03-20T01:29:11.530Z,101182.09
2023-03-20T01:32:17.488Z,101175.83
2023-03-20T01:35:30.623Z,101178.14
2023-03-20T01:38:42.999Z,101179.16
2023-03-20T01:41:48.762Z,101176.63
2023-03-20T01:44:54.641Z,101174.82
2023-03-20T01:48:00.794Z,101172.77
2023-03-20T01:51:06.628Z,101174.82
2023-03-20T01:54:16.573Z,101179.02
2023-03-20T01:57:31.789Z,101173.30
2023-03-20T02:00:38.924Z,101162.95
2023-03-20T02:03:45.333Z,101159.66
2023-03-20T02:06:55.673Z,101159.00
2023-03-20T02:10:21.847Z,101163.83
2023-03-20T02:13:29.278Z,101161.73
2023-03-20T02:16:21.428Z,101161.50
2023-03-20T02:19:38.822Z,101164.02
2023-03-20T02:23:09.721Z,101161.45
2023-03-20T02:26:49.383Z,101147.68
2023-03-20T02:30:11.848Z,101152.14
2023-03-20T02:33:40.071Z,101165.67
2023-03-20T02:37:12.629Z,101154.22
2023-03-20T02:40:32.054Z,101156.10
2023-03-20T02:43:48.924Z,101154.52
2023-03-20T02:47:38.512Z,101155.16
2023-03-20T02:50:56.001Z,101147.91
2023-03-20T02:54:11.571Z,101153.05
2023-03-20T02:57:24.666Z,101162.28
2023-03-20T03:00:50.533Z,101156.93
2023-03-20T03:04:05.808Z,101154.31
2023-03-20T03:07:13.191Z,101156.27
2023-03-20T03:10:36.611Z,101155.67
2023-03-20T03:13:44.889Z,101154.91
2023-03-20T03:16:52.223Z,101153.19
2023-03-20T03:20:05.380Z,101155.90
2023-03-20T03:23:11.979Z,101157.98
2023-03-20T03:26:18.176Z,101162.20
2023-03-20T03:29:32.091Z,101160.62
2023-03-20T03:32:47.752Z,101165.70
2023-03-20T03:35:55.151Z,101164.45
2023-03-20T03:39:11.700Z,101161.06
2023-03-20T03:42:51.084Z,101163.34
2023-03-20T03:46:02.491Z,101163.11
2023-03-20T03:49:11.547Z,101155.87
2023-03-20T03:52:26.019Z,101156.88
2023-03-20T03:55:42.961Z,101144.81
2023-03-20T03:58:58.195Z,101145.44
2023-03-20T04:02:05.638Z,101143.58
2023-03-20T04:05:10.805Z,101146.20
2023-03-20T04:08:17.310Z,101142.91
2023-03-20T04:11:32.704Z,101149.20
2023-03-20T04:14:38.662Z,101148.92
2023-03-20T04:17:44.760Z,101143.02
2023-03-20T04:20:50.633Z,101149.09
2023-03-20T04:23:56.793Z,101144.95
2023-03-20T04:27:01.781Z,101141.75
2023-03-20T04:30:09.045Z,101146.53
2023-03-20T04:33:35.180Z,101148.53
2023-03-20T04:36:52.517Z,101144.07
2023-03-20T04:40:02.474Z,101140.75
2023-03-20T04:43:07.238Z,101147.14
2023-03-20T04:46:14.664Z,101145.90
2023-03-20T04:49:21.618Z,101146.66
2023-03-20T04:52:29.369Z,101141.00
2023-03-20T04:55:35.961Z,101145.90
2023-03-20T04:58:43.283Z,101142.72
2023-03-20T05:01:50.992Z,101137.81
2023-03-20T05:04:58.286Z,101131.91
2023-03-20T05:08:08.029Z,101144.63
2023-03-20T05:11:16.474Z,101144.27
2023-03-20T05:14:24.979Z,101146.70
2023-03-20T05:17:42.705Z,101144.63
2023-03-20T05:20:53.280Z,101143.78
2023-03-20T05:24:04.041Z,101150.80
2023-03-20T05:27:15.104Z,101157.12
2023-03-20T05:30:56.304Z,101147.39
2023-03-20T05:34:05.091Z,101145.89
2023-03-20T05:37:14.226Z,101159.33
2023-03-20T05:40:41.210Z,101161.55
2023-03-20T05:43:49.579Z,101158.75
2023-03-20T05:47:13.863Z,101164.78
2023-03-20T05:50:22.845Z,101170.08
2023-03-20T05:53:44.957Z,101168.87
2023-03-20T05:57:01.243Z,101167.39
2023-03-20T06:00:12.363Z,101174.66
2023-03-20T06:03:17.389Z,101168.75
2023-03-20T06:06:33.237Z,101163.38
2023-03-20T06:09:38.548Z,101161.16
2023-03-20T06:12:44.254Z,101165.86
2023-03-20T06:15:53.726Z,101162.50
2023-03-20T06:19:13.218Z,101160.30
2023-03-20T06:22:19.683Z,101162.64
2023-03-20T06:25:25.683Z,101156.09
2023-03-20T06:28:32.245Z,101162.13
2023-03-20T06:31:41.441Z,101161.17
2023-03-20T06:34:49.107Z,101171.27
2023-03-20T06:37:56.077Z,101173.13
2023-03-20T06:41:02.725Z,101169.54
2023-03-20T06:44:10.141Z,101170.18
2023-03-20T06:47:21.894Z,101173.86
2023-03-20T06:50:28.622Z,101172.01
2023-03-20T06:53:36.240Z,101166.81
2023-03-20T06:56:46.190Z,101165.09
2023-03-20T06:59:53.347Z,101160.53
2023-03-20T07:03:02.269Z,101158.06
2023-03-20T07:06:14.270Z,101169.52
2023-03-20T07:09:20.873Z,101154.23
2023-03-20T07:12:32.951Z,101154.82
2023-03-20T07:16:04.085Z,101156.94
2023-03-20T07:19:03.552Z,101161.84
2023-03-20T07:22:15.091Z,101160.66
2023-03-20T07:25:39.465Z,101156.55
2023-03-20T07:28:33.539Z,101152.44
2023-03-20T07:31:44.018Z,101155.42
2023-03-20T07:34:51.832Z,101158.66
2023-03-20T07:38:00.039Z,101159.17
2023-03-20T07:41:10.388Z,101162.23
2023-03-20T07:44:18.576Z,101167.17
2023-03-20T07:47:24.505Z,101169.76
2023-03-20T07:50:29.648Z,101171.00
2023-03-20T07:53:35.098Z,101166.19
2023-03-20T07:56:44.866Z,101177.16
2023-03-20T07:59:49.873Z,101168.23
2023-03-20T08:03:00.159Z,101164.73
2023-03-20T08:06:06.909Z,101165.95
2023-03-20T08:09:21.561Z,101171.96
2023-03-20T08:12:28.009Z,101172.53
2023-03-20T08:15:36.168Z,101170.03
2023-03-20T08:18:43.537Z,101166.56
2023-03-20T08:21:50.263Z,101171.25
2023-03-20T08:24:57.209Z,101160.68
2023-03-20T08:28:03.804Z,101163.75
2023-03-20T08:31:10.541Z,101171.08
2023-03-20T08:34:18.466Z,101174.90
2023-03-20T08:37:25.703Z,101168.56
2023-03-20T08:40:35.062Z,101165.05
2023-03-20T08:43:46.552Z,101161.32
2023-03-20T08:46:54.463Z,101163.15
2023-03-20T08:49:59.996Z,101157.58
2023-03-20T08:53:05.595Z,101155.59
2023-03-20T08:56:10.841Z,101152.41
2023-03-20T08:59:17.840Z,101159.55
2023-03-20T09:02:27.543Z,101165.27
2023-03-20T09:05:39.782Z,101155.26
2023-03-20T09:08:45.304Z,101149.33
2023-03-20T09:11:52.583Z,101152.03
2023-03-20T09:15:01.078Z,101147.83
2023-03-20T09:18:07.342Z,101143.28
2023-03-20T09:21:12.279Z,101139.64
2023-03-20T09:24:19.220Z,101142.63
2023-03-20T09:27:25.146Z,101142.21
2023-03-20T09:30:29.766Z,101139.88
2023-03-20T09:33:35.982Z,101136.18
2023-03-20T09:36:42.750Z,101131.13
2023-03-20T09:39:48.518Z,101133.18
2023-03-20T09:43:09.827Z,101139.01
2023-03-20T09:46:34.874Z,101132.69
2023-03-20T09:50:05.645Z,101129.13
2023-03-20T09:53:34.582Z,101127.20
2023-03-20T09:56:42.851Z,101122.84
2023-03-20T09:59:49.762Z,101121.55
2023-03-20T10:03:15.163Z,101121.06
2023-03-20T10:06:28.876Z,101120.89
2023-03-20T10:09:45.029Z,101119.77
2023-03-20T10:13:06.677Z,101114.83
2023-03-20T10:16:24.008Z,101105.91
2023-03-20T10:19:52.362Z,101110.59
2023-03-20T10:23:03.995Z,101110.09
2023-03-20T10:26:13.349Z,101099.19
2023-03-20T10:29:26.799Z,101096.88
2023-03-20T10:32:44.889Z,101102.44
2023-03-20T10:36:10.080Z,101104.37
2023-03-20T10:39:22.428Z,101096.70
2023-03-20T10:42:33.098Z,101094.17
2023-03-20T10:45:46.070Z,101093.22
2023-03-20T10:49:03.483Z,101087.53
2023-03-20T10:52:05.775Z,101087.33
2023-03-20T10:55:25.509Z,101078.35
2023-03-20T10:58:38.224Z,101078.64
2023-03-20T11:01:45.328Z,101080.94
2023-03-20T11:04:53.666Z,101071.45
2023-03-20T11:08:04.399Z,101071.43
2023-03-20T11:11:22.008Z,101069.69
2023-03-20T11:14:35.788Z,101057.16
2023-03-20T11:17:47.471Z,101055.98
2023-03-20T11:21:11.351Z,101057.66
2023-03-20T11:24:19.716Z,101047.84
2023-03-20T11:27:38.497Z,101046.67
2023-03-20T11:31:03.509Z,101049.65
2023-03-20T11:34:08.615Z,101047.05
2023-03-20T11:37:17.513Z,101046.25
2023-03-20T11:40:36.672Z,101030.59
2023-03-20T11:43:43.274Z,101026.59
2023-03-20T11:46:51.591Z,101021.70
2023-03-20T11:50:06.038Z,101017.05
2023-03-20T11:53:10.629Z,101013.21
2023-03-20T11:56:25.145Z,101008.34
2023-03-20T11:59:32.088Z,101012.22
2023-03-20T12:02:38.212Z,100998.36
2023-03-20T12:05:51.610Z,100991.56
2023-03-20T12:08:59.143Z,100993.30
2023-03-20T12:12:22.162Z,100986.83
2023-03-20T12:15:51.552Z,100981.55
2023-03-20T12:19:18.441Z,100982.22
2023-03-20T12:22:45.568Z,100972.83
2023-03-20T12:26:14.456Z,100971.88
2023-03-20T12:29:39.307Z,100969.02
2023-03-20T12:33:02.762Z,100948.34
2023-03-20T12:36:11.718Z,100957.02
2023-03-20T12:39:21.086Z,100949.13
2023-03-20T12:42:43.727Z,100949.11
2023-03-20T12:46:18.003Z,100940.48
2023-03-20T12:49:34.165Z,100937.27
2023-03-20T12:53:18.224Z,100937.48
2023-03-20T12:56:49.315Z,100938.95
2023-03-20T13:00:06.624Z,100944.38
2023-03-20T13:03:27.803Z,100944.08
2023-03-20T13:06:46.931Z,100941.52
2023-03-20T13:10:37.954Z,100943.20
2023-03-20T13:14:13.475Z,100944.20
2023-03-20T13:17:43.758Z,100937.64
2023-03-20T13:20:58.330Z,100930.31
2023-03-20T13:24:35.235Z,100932.16
2023-03-20T13:28:03.940Z,100921.77
2023-03-20T13:31:38.157Z,100922.36
2023-03-20T13:34:54.675Z,100918.98
2023-03-20T13:38:11.354Z,100920.78
2023-03-20T13:41:21.529Z,100907.73
2023-03-20T13:44:29.226Z,100907.97
2023-03-20T13:47:40.430Z,100900.99
2023-03-20T13:50:56.862Z,100903.95
2023-03-20T13:54:32.183Z,100906.36
2023-03-20T13:58:00.548Z,100903.65
2023-03-20T14:01:34.415Z,100900.92
2023-03-20T14:04:40.298Z,100901.11
2023-03-20T14:07:51.139Z,100898.05
2023-03-20T14:10:57.627Z,100885.59
2023-03-20T14:14:13.725Z,100881.14
2023-03-20T14:17:35.026Z,100877.54
2023-03-20T14:20:50.814Z,100885.77
2023-03-20T14:23:58.668Z,100881.30
2023-03-20T14:27:09.201Z,100878.89
2023-03-20T14:30:17.011Z,100869.16
2023-03-20T14:33:33.657Z,100866.23
2023-03-20T14:36:46.048Z,100877.21
2023-03-20T14:40:04.987Z,100868.61
2023-03-20T14:43:15.477Z,100864.19
2023-03-20T14:46:47.373Z,100863.44
2023-03-20T14:50:37.554Z,100859.30
2023-03-20T14:53:44.864Z,100858.59
2023-03-20T14:56:54.812Z,100855.80
2023-03-20T15:00:01.758Z,100862.33
2023-03-20T15:03:19.265Z,100866.81
2023-03-20T15:06:26.912Z,100869.25
2023-03-20T15:09:34.601Z,100865.47
2023-03-20T15:12:42.611Z,100869.48
2023-03-20T15:15:49.749Z,100869.19
2023-03-20T15:19:03.861Z,100868.28
2023-03-20T15:22:11.010Z,100868.52
2023-03-20T15:25:18.023Z,100867.20
2023-03-20T15:28:42.209Z,100870.81
2023-03-20T15:31:59.842Z,100871.22
2023-03-20T15:35:02.466Z,100875.08
2023-03-20T15:38:11.996Z,100874.56
2023-03-20T15:41:30.559Z,100871.11
2023-03-20T15:44:39.465Z,100869.91
2023-03-20T15:47:47.364Z,100875.30
2023-03-20T15:50:56.009Z,100882.62
2023-03-20T15:54:03.539Z,100884.40
2023-03-20T15:57:13.391Z,100884.07
2023-03-20T16:00:22.764Z,100885.16
2023-03-20T16:03:34.685Z,100892.34
2023-03-20T16:06:40.203Z,100899.55
2023-03-20T16:09:46.317Z,100898.79
2023-03-20T16:12:54.512Z,100905.75
2023-03-20T16:16:02.909Z,100904.23
2023-03-20T16:19:11.161Z,100909.36
2023-03-20T16:22:34.348Z,100909.42
2023-03-20T16:25:41.121Z,100915.61
2023-03-20T16:28:47.062Z,100917.50
2023-03-20T16:31:55.856Z,100920.45
2023-03-20T16:35:06.623Z,100917.10
2023-03-20T16:38:14.227Z,100913.98
2023-03-20T16:41:45.766Z,100920.20
2023-03-20T16:44:51.455Z,100913.36
2023-03-20T16:47:58.172Z,100914.04
2023-03-20T16:51:04.793Z,100914.85
2023-03-20T16:54:12.960Z,100910.93
2023-03-20T16:57:24.081Z,100913.28
2023-03-20T17:00:40.437Z,100904.17
2023-03-20T17:04:03.934Z,100903.84
2023-03-20T17:07:12.625Z,100905.52
2023-03-20T17:10:36.690Z,100900.71
2023-03-20T17:13:43.176Z,100902.13
2023-03-20T17:16:50.588Z,100903.92
2023-03-20T17:19:49.548Z,100900.73
2023-03-20T17:22:43.172Z,100893.86
2023-03-20T17:25:48.223Z,100897.84
2023-03-20T17:28:54.403Z,100896.00
2023-03-20T17:32:01.057Z,100905.39
2023-03-20T17:35:07.164Z,100915.14
2023-03-20T17:38:14.015Z,100913.08
2023-03-20T17:41:23.434Z,100918.14
2023-03-20T17:44:29.349Z,100914.58
2023-03-20T17:47:41.679Z,100902.98
2023-03-20T17:50:47.238Z,100899.53
2023-03-20T17:53:53.672Z,100897.20
2023-03-20T17:57:02.023Z,100888.58
2023-03-20T18:00:07.694Z,100892.41
2023-03-20T18:03:14.319Z,100895.39
2023-03-20T18:06:22.175Z,100892.67
2023-03-20T18:09:28.836Z,100887.98
2023-03-20T18:12:35.632Z,100889.46
2023-03-20T18:15:42.129Z,100879.88
2023-03-20T18:18:49.274Z,100878.77
2023-03-20T18:21:54.112Z,100874.31
2023-03-20T18:25:00.634Z,100874.69
2023-03-20T18:28:12.501Z,100874.06
2023-03-20T18:31:20.891Z,100879.37
2023-03-20T18:34:29.319Z,100874.45
2023-03-20T18:37:36.320Z,100879.45
2023-03-20T18:40:51.405Z,100882.78
2023-03-20T18:43:58.419Z,100875.36
2023-03-20T18:47:05.052Z,100883.36
2023-03-20T18:50:10.897Z,100876.95
2023-03-20T18:53:18.919Z,100873.77
2023-03-20T18:56:33.489Z,100875.11
2023-03-20T18:59:38.698Z,100870.19
2023-03-20T19:02:45.316Z,100869.70
2023-03-20T19:05:52.502Z,100864.41
2023-03-20T19:09:00.954Z,100862.42
2023-03-20T19:12:06.087Z,100864.11
2023-03-20T19:15:12.037Z,100859.90
2023-03-20T19:18:29.376Z,100852.74
2023-03-20T19:21:35.642Z,100851.39
2023-03-20T19:24:43.263Z,100853.70
2023-03-20T19:27:50.754Z,100848.41
2023-03-20T19:30:57.570Z,100846.30
2023-03-20T19:34:05.450Z,100848.64
2023-03-20T19:37:12.334Z,100851.34
2023-03-20T19:40:18.418Z,100850.12
2023-03-20T19:43:24.255Z,100844.98
2023-03-20T19:46:41.219Z,100847.93
2023-03-20T19:49:40.523Z,100849.05
2023-03-20T19:52:46.730Z,100853.58
2023-03-20T19:55:54.122Z,100846.22
2023-03-20T19:59:00.070Z,100854.57
2023-03-20T20:02:07.804Z,100851.98
2023-03-20T20:05:14.723Z,100847.41
2023-03-20T20:08:38.973Z,100848.65
2023-03-20T20:11:33.273Z,100846.34
2023-03-20T20:14:39.723Z,100843.63
2023-03-20T20:17:44.765Z,100841.77
2023-03-20T20:21:42.682Z,100837.71
2023-03-20T20:24:00.206Z,100840.21
2023-03-20T20:27:17.945Z,100842.91
2023-03-20T20:30:16.397Z,100836.16
2023-03-20T20:33:28.704Z,100837.98
2023-03-20T20:37:26.030Z,100831.58
2023-03-20T20:39:41.714Z,100838.62
2023-03-20T20:42:51.136Z,100830.38
2023-03-20T20:45:56.909Z,100839.22
2023-03-20T20:49:18.161Z,100832.30
2023-03-20T20:52:11.079Z,100829.23
2023-03-20T20:55:25.305Z,100829.98
2023-03-20T20:58:26.265Z,100818.30
2023-03-20T21:01:34.536Z,100827.16
2023-03-20T21:04:41.533Z,100814.23
2023-03-20T21:07:48.164Z,100810.19
2023-03-20T21:10:54.027Z,100807.33
2023-03-20T21:14:00.494Z,100806.81
2023-03-20T21:17:08.390Z,100804.70
2023-03-20T21:20:15.580Z,100801.88
2023-03-20T21:23:22.205Z,100793.97
2023-03-20T21:26:28.960Z,100798.09
2023-03-20T21:29:34.846Z,100800.44
2023-03-20T21:32:42.419Z,100794.52
2023-03-20T21:35:49.712Z,100791.81
2023-03-20T21:39:11.817Z,100794.16
2023-03-20T21:42:05.689Z,100795.86
2023-03-20T21:46:10.834Z,100801.22
2023-03-20T21:48:58.340Z,100802.80
2023-03-20T21:52:28.893Z,100798.63
2023-03-20T21:58:38.416Z,100799.45
2023-03-20T22:05:02.012Z,100786.30
2023-03-20T22:14:33.050Z,100787.41
2023-03-20T22:20:36.328Z,100787.17
2023-03-20T22:23:47.962Z,100783.13
2023-03-20T22:27:13.008Z,100780.14
2023-03-20T22:30:08.534Z,100787.29
2023-03-20T22:36:33.257Z,100793.92
2023-03-20T22:45:11.229Z,100792.46
2023-03-20T22:48:17.689Z,100794.77
2023-03-20T22:51:32.634Z,100784.59
2023-03-20T22:54:32.117Z,100781.38
2023-03-20T22:57:45.606Z,100784.19
2023-03-20T23:00:45.831Z,100791.82
2023-03-20T23:03:51.627Z,100791.11
2023-03-20T23:06:59.530Z,100783.64
2023-03-20T23:10:05.810Z,100773.91
2023-03-20T23:13:11.709Z,100770.25
2023-03-20T23:16:18.583Z,100763.98
2023-03-20T23:19:26.514Z,100766.61
2023-03-20T23:22:33.234Z,100761.21
2023-03-20T23:25:40.636Z,100756.56
2023-03-20T23:28:48.787Z,100749.33
2023-03-20T23:31:55.173Z,100746.02
2023-03-20T23:35:01.880Z,100734.73
2023-03-20T23:38:08.207Z,100732.66
2023-03-20T23:41:14.327Z,100726.17
2023-03-20T23:44:20.742Z,100727.17
2023-03-20T23:47:30.003Z,100720.64
2023-03-20T23:50:46.084Z,100718.69
2023-03-20T23:53:44.658Z,100710.72
2023-03-20T23:56:49.633Z,100705.18
2023-03-20T23:59:55.563Z,100703.73
